Time;durP1;ratioP1;P1;durP2;ratioP2;P2;SDS_P1;SDS_P2;PMS_P1;PMS_P2;Temp;Humidity;BMP_temperature;BMP_pressure;BME280_temperature;BME280_humidity;BME280_pressure;Samples;Min_cycle;Max_cycle;Signal;HPM_P1;HPM_P2
2023/05/24 00:00:20;;;;;;;4.93;4.22;;;;;14.80;96479.00;;;;8211307;28;20247;-67
2023/05/24 00:04:29;;;;;;;6.85;4.80;;;;;14.80;96477.00;;;;8194671;28;20240;-67
2023/05/24 00:08:39;;;;;;;7.68;4.30;;;;;14.70;96478.00;;;;8213646;28;20219;-66
2023/05/24 00:12:44;;;;;;;4.80;3.80;;;;;14.70;96470.00;;;;8207213;28;20636;-65
2023/05/24 00:16:50;;;;;;;4.47;3.80;;;;;14.60;96483.00;;;;8211111;28;20307;-68
2023/05/24 00:20:55;;;;;;;3.65;3.35;;;;;14.50;96487.00;;;;8212382;28;20211;-66
2023/05/24 00:25:01;;;;;;;2.80;2.60;;;;;14.40;96487.00;;;;8208617;28;20756;-68
2023/05/24 00:29:04;;;;;;;3.22;2.70;;;;;14.30;96489.00;;;;8207482;28;20287;-66
2023/05/24 00:33:09;;;;;;;3.22;2.92;;;;;14.10;96491.00;;;;8216582;28;20211;-66
2023/05/24 00:37:14;;;;;;;3.72;3.20;;;;;13.90;96500.00;;;;8214095;28;20231;-65
2023/05/24 00:41:18;;;;;;;5.93;3.55;;;;;13.70;96480.00;;;;8218041;28;20215;-65
2023/05/24 00:45:21;;;;;;;7.13;4.00;;;;;13.50;96494.00;;;;8212027;28;20266;-67
2023/05/24 00:49:28;;;;;;;9.48;4.00;;;;;13.40;96491.00;;;;8215607;28;20199;-65
2023/05/24 00:53:35;;;;;;;7.18;4.50;;;;;13.30;96489.00;;;;8216849;28;20597;-67
2023/05/24 00:57:41;;;;;;;11.02;4.82;;;;;13.20;96477.00;;;;8212492;28;20250;-66
2023/05/24 01:01:45;;;;;;;7.90;4.35;;;;;13.10;96483.00;;;;8217462;28;20770;-69
2023/05/24 01:05:49;;;;;;;8.00;4.65;;;;;13.00;96486.00;;;;8214868;28;20699;-66
2023/05/24 01:10:04;;;;;;;8.20;4.43;;;;;13.00;96483.00;;;;8222799;28;20210;-65
2023/05/24 01:14:19;;;;;;;9.57;4.82;;;;;12.90;96477.00;;;;8222395;28;20241;-67
2023/05/24 01:18:29;;;;;;;9.85;4.68;;;;;12.90;96476.00;;;;8218728;28;20235;-67
2023/05/24 01:22:59;;;;;;;10.88;4.88;;;;;12.80;96478.00;;;;8214696;28;20219;-67
2023/05/24 01:27:09;;;;;;;13.10;4.82;;;;;12.80;96484.00;;;;8200473;28;20902;-66
2023/05/24 01:31:15;;;;;;;11.13;4.93;;;;;12.80;96486.00;;;;8218715;28;20775;-64
2023/05/24 01:35:19;;;;;;;10.43;5.07;;;;;12.80;96477.00;;;;8217898;28;20244;-65
2023/05/24 01:39:29;;;;;;;11.45;5.35;;;;;12.70;96459.00;;;;8212851;28;20218;-68
2023/05/24 01:43:41;;;;;;;11.68;5.80;;;;;12.60;96471.00;;;;8216301;28;20652;-66
2023/05/24 01:47:56;;;;;;;16.30;5.70;;;;;12.60;96472.00;;;;8220936;28;20227;-65
2023/05/24 01:52:04;;;;;;;13.20;5.43;;;;;12.60;96472.00;;;;8216258;28;20305;-67
2023/05/24 01:56:08;;;;;;;11.10;5.40;;;;;12.50;96465.00;;;;8217329;28;20205;-66
2023/05/24 02:00:14;;;;;;;10.55;5.28;;;;;12.50;96472.00;;;;8217043;28;20817;-65
2023/05/24 02:04:19;;;;;;;8.50;5.50;;;;;12.50;96465.00;;;;8221601;28;20329;-67
2023/05/24 02:08:25;;;;;;;10.10;5.25;;;;;12.60;96469.00;;;;8218958;28;20205;-65
2023/05/24 02:12:28;;;;;;;15.45;5.72;;;;;12.60;96474.00;;;;8180129;28;20387;-64
2023/05/24 02:16:32;;;;;;;10.13;5.30;;;;;12.60;96476.00;;;;8216995;28;20549;-67
2023/05/24 02:20:36;;;;;;;9.48;5.05;;;;;12.60;96477.00;;;;8191082;28;20264;-67
2023/05/24 02:24:41;;;;;;;13.45;5.35;;;;;12.60;96476.00;;;;8195774;28;20554;-67
2023/05/24 02:28:47;;;;;;;12.27;5.28;;;;;12.60;96475.00;;;;8220838;28;20732;-65
2023/05/24 02:32:51;;;;;;;13.77;6.13;;;;;12.60;96480.00;;;;8220644;28;20214;-67
2023/05/24 02:36:55;;;;;;;12.23;5.35;;;;;12.60;96474.00;;;;8216639;28;20242;-66
2023/05/24 02:41:01;;;;;;;17.42;5.97;;;;;12.60;96471.00;;;;8220806;28;20657;-64
2023/05/24 02:45:08;;;;;;;10.80;5.50;;;;;12.60;96476.00;;;;8220642;28;20233;-65
2023/05/24 02:49:13;;;;;;;9.88;5.85;;;;;12.60;96477.00;;;;8214306;28;20647;-67
2023/05/24 02:53:20;;;;;;;12.88;5.80;;;;;12.60;96473.00;;;;8221803;28;20270;-67
2023/05/24 02:57:23;;;;;;;13.30;5.97;;;;;12.60;96469.00;;;;8213314;28;20235;-67
2023/05/24 03:01:39;;;;;;;14.18;5.78;;;;;12.60;96477.00;;;;8247486;23;20378;-66
2023/05/24 03:05:44;;;;;;;18.02;6.93;;;;;12.50;96475.00;;;;8216023;28;20211;-67
2023/05/24 03:09:47;;;;;;;10.55;5.78;;;;;12.50;96483.00;;;;8216389;28;20282;-67
2023/05/24 03:13:53;;;;;;;13.32;6.07;;;;;12.50;96495.00;;;;8199650;28;20231;-65
2023/05/24 03:17:56;;;;;;;10.68;5.25;;;;;12.40;96492.00;;;;8218656;28;20623;-67
2023/05/24 03:22:02;;;;;;;14.43;6.10;;;;;12.30;96490.00;;;;8219966;28;20208;-67
2023/05/24 03:26:06;;;;;;;11.52;5.22;;;;;12.10;96495.00;;;;8218547;28;20266;-68
2023/05/24 03:30:12;;;;;;;14.07;5.47;;;;;12.00;96489.00;;;;8207694;28;20284;-66
2023/05/24 03:34:18;;;;;;;11.48;5.63;;;;;11.90;96489.00;;;;8204212;28;20231;-71
2023/05/24 03:38:23;;;;;;;13.63;5.47;;;;;11.80;96492.00;;;;8203587;28;20716;-70
2023/05/24 03:42:30;;;;;;;14.10;5.88;;;;;11.80;96487.00;;;;8201275;28;20637;-66
2023/05/24 03:46:33;;;;;;;19.40;6.60;;;;;11.80;96489.00;;;;8181565;28;20215;-66
2023/05/24 03:50:39;;;;;;;16.17;5.60;;;;;11.80;96486.00;;;;8207773;28;20210;-66
2023/05/24 03:54:46;;;;;;;15.80;6.57;;;;;11.90;96495.00;;;;8208434;28;20300;-68
2023/05/24 03:58:50;;;;;;;11.75;5.18;;;;;11.90;96496.00;;;;8201431;28;20233;-66
2023/05/24 04:02:58;;;;;;;14.65;6.38;;;;;12.00;96497.00;;;;8204992;28;20247;-68
2023/05/24 04:07:02;;;;;;;12.85;5.35;;;;;12.10;96495.00;;;;8199487;28;20208;-69
2023/05/24 04:11:06;;;;;;;13.95;5.57;;;;;12.30;96493.00;;;;8209518;28;20294;-64
2023/05/24 04:15:13;;;;;;;13.20;5.60;;;;;12.50;96488.00;;;;8206715;28;20288;-65
2023/05/24 04:19:21;;;;;;;15.25;5.60;;;;;12.50;96491.00;;;;8203079;28;20274;-67
2023/05/24 04:23:24;;;;;;;11.77;4.82;;;;;12.60;96497.00;;;;8204035;28;20644;-66
2023/05/24 04:27:30;;;;;;;15.57;5.45;;;;;12.60;96494.00;;;;8209140;28;20647;-65
2023/05/24 04:31:33;;;;;;;14.00;5.50;;;;;12.60;96498.00;;;;8204517;28;20659;-69
2023/05/24 04:35:43;;;;;;;14.02;5.20;;;;;12.70;96506.00;;;;8202053;28;20564;-67
2023/05/24 04:39:46;;;;;;;14.98;6.03;;;;;12.80;96491.00;;;;8204066;28;20243;-67
2023/05/24 04:43:52;;;;;;;13.13;4.68;;;;;12.90;96498.00;;;;8212756;28;20281;-68
2023/05/24 04:47:55;;;;;;;12.38;4.50;;;;;12.80;96502.00;;;;8219569;28;20205;-65
2023/05/24 04:51:59;;;;;;;17.67;5.75;;;;;12.90;96503.00;;;;8216537;28;20233;-66
2023/05/24 04:56:04;;;;;;;19.63;5.50;;;;;13.00;96500.00;;;;8224718;28;20203;-66
2023/05/24 05:00:10;;;;;;;15.45;6.05;;;;;13.00;96499.00;;;;8213667;28;20233;-67
2023/05/24 05:04:17;;;;;;;13.68;4.50;;;;;13.10;96492.00;;;;8233149;28;20723;-67
2023/05/24 05:08:20;;;;;;;14.43;5.05;;;;;13.10;96503.00;;;;8234775;28;20653;-65
2023/05/24 05:12:23;;;;;;;12.40;5.30;;;;;13.20;96500.00;;;;8221707;28;20202;-68
2023/05/24 05:16:29;;;;;;;14.13;5.45;;;;;13.20;96502.00;;;;8220716;28;20298;-66
2023/05/24 05:20:32;;;;;;;16.70;5.28;;;;;13.30;96507.00;;;;8232700;28;20244;-66
2023/05/24 05:24:40;;;;;;;18.38;5.78;;;;;13.30;96511.00;;;;8215202;28;20270;-70
2023/05/24 05:28:43;;;;;;;18.88;5.05;;;;;13.20;96503.00;;;;8218683;28;20234;-69
2023/05/24 05:32:52;;;;;;;9.85;4.25;;;;;13.30;96508.00;;;;8215360;28;20289;-66
2023/05/24 05:36:55;;;;;;;11.77;4.95;;;;;13.30;96509.00;;;;8218212;28;20685;-67
2023/05/24 05:41:01;;;;;;;16.27;5.28;;;;;13.40;96499.00;;;;8220982;28;20233;-64
2023/05/24 05:45:06;;;;;;;14.27;4.95;;;;;13.50;96502.00;;;;8224174;28;20672;-66
2023/05/24 05:49:11;;;;;;;14.20;5.10;;;;;13.50;96501.00;;;;8219594;28;20661;-64
2023/05/24 05:53:15;;;;;;;14.77;5.22;;;;;13.50;96488.00;;;;8221215;28;20198;-63
2023/05/24 05:57:23;;;;;;;13.50;5.55;;;;;13.60;96497.00;;;;8218157;28;20207;-66
2023/05/24 06:01:27;;;;;;;16.63;5.35;;;;;13.60;96489.00;;;;8216524;28;20265;-65
2023/05/24 06:05:33;;;;;;;16.88;5.95;;;;;13.70;96496.00;;;;8219616;28;20203;-65
2023/05/24 06:09:37;;;;;;;9.30;5.00;;;;;13.70;96497.00;;;;8221491;28;20313;-66
2023/05/24 06:13:41;;;;;;;20.17;5.38;;;;;13.70;96505.00;;;;8223148;28;20305;-64
2023/05/24 06:17:47;;;;;;;18.73;5.38;;;;;13.90;96500.00;;;;8219174;28;20281;-66
2023/05/24 06:21:54;;;;;;;13.10;5.82;;;;;13.90;96512.00;;;;8220900;28;20199;-65
2023/05/24 06:26:02;;;;;;;14.15;5.53;;;;;13.90;96497.00;;;;8218842;28;20250;-68
2023/05/24 06:30:06;;;;;;;16.27;5.22;;;;;14.00;96512.00;;;;8218532;28;20230;-66
2023/05/24 06:34:09;;;;;;;16.05;5.53;;;;;14.00;96508.00;;;;8221740;28;20548;-67
2023/05/24 06:38:17;;;;;;;23.42;6.18;;;;;14.10;96507.00;;;;8219315;28;20258;-67
2023/05/24 06:42:22;;;;;;;18.33;5.53;;;;;14.20;96511.00;;;;8215520;28;20227;-66
2023/05/24 06:46:29;;;;;;;14.73;4.75;;;;;14.20;96513.00;;;;8216721;28;20703;-65
2023/05/24 06:50:32;;;;;;;18.65;6.10;;;;;14.10;96510.00;;;;8211663;28;20239;-67
2023/05/24 06:54:37;;;;;;;14.50;5.57;;;;;14.00;96515.00;;;;8220221;28;20294;-67
2023/05/24 06:58:40;;;;;;;20.92;5.70;;;;;14.00;96524.00;;;;8217121;28;20250;-66
2023/05/24 07:02:45;;;;;;;19.35;5.45;;;;;14.10;96533.00;;;;8214719;28;20238;-66
2023/05/24 07:06:49;;;;;;;13.18;4.38;;;;;14.20;96525.00;;;;8219528;28;20203;-65
2023/05/24 07:10:58;;;;;;;16.98;5.30;;;;;14.30;96539.00;;;;8218048;28;20290;-64
2023/05/24 07:15:05;;;;;;;14.25;5.30;;;;;14.20;96544.00;;;;8207357;28;20211;-65
2023/05/24 07:19:12;;;;;;;14.77;5.32;;;;;14.20;96550.00;;;;8204759;28;20239;-66
2023/05/24 07:23:18;;;;;;;14.95;5.20;;;;;14.30;96546.00;;;;8213269;28;20290;-66
2023/05/24 07:27:25;;;;;;;16.63;5.18;;;;;14.50;96554.00;;;;8212534;28;20207;-66
2023/05/24 07:31:31;;;;;;;17.90;5.22;;;;;14.60;96559.00;;;;8206760;28;20895;-67
2023/05/24 07:35:35;;;;;;;18.90;6.05;;;;;14.60;96564.00;;;;8212386;28;20211;-66
2023/05/24 07:39:43;;;;;;;15.90;6.05;;;;;14.80;96557.00;;;;8211718;28;20231;-68
2023/05/24 07:43:48;;;;;;;21.35;5.78;;;;;14.80;96550.00;;;;8200734;28;20682;-66
2023/05/24 07:47:54;;;;;;;20.48;6.35;;;;;14.80;96568.00;;;;8205023;28;20302;-66
2023/05/24 07:51:59;;;;;;;24.13;6.38;;;;;14.90;96561.00;;;;8202750;28;20200;-65
2023/05/24 07:56:06;;;;;;;21.98;6.75;;;;;15.10;96565.00;;;;8218310;28;20213;-65
2023/05/24 08:00:13;;;;;;;19.02;6.68;;;;;15.30;96574.00;;;;8207246;28;20235;-65
2023/05/24 08:04:20;;;;;;;16.30;6.03;;;;;15.60;96566.00;;;;8212750;28;20701;-65
2023/05/24 08:08:25;;;;;;;21.83;6.15;;;;;15.80;96576.00;;;;8192100;28;20231;-65
2023/05/24 08:12:30;;;;;;;13.27;6.10;;;;;15.80;96590.00;;;;8204333;28;20577;-66
2023/05/24 08:16:36;;;;;;;23.77;6.53;;;;;15.60;96575.00;;;;8218234;28;20290;-65
2023/05/24 08:20:42;;;;;;;21.90;6.57;;;;;15.70;96594.00;;;;8206289;28;20274;-69
2023/05/24 08:24:46;;;;;;;17.30;7.28;;;;;15.80;96587.00;;;;8222197;28;20204;-64
2023/05/24 08:28:52;;;;;;;20.55;6.97;;;;;16.00;96585.00;;;;8212982;28;20302;-65
2023/05/24 08:33:00;;;;;;;16.70;6.22;;;;;15.80;96595.00;;;;8213470;28;21010;-65
2023/05/24 08:37:03;;;;;;;17.77;5.68;;;;;15.60;96590.00;;;;8204999;28;20633;-65
2023/05/24 08:41:11;;;;;;;15.45;6.00;;;;;15.50;96583.00;;;;8211639;28;20331;-65
2023/05/24 08:45:18;;;;;;;13.30;5.97;;;;;15.60;96594.00;;;;8203012;28;20278;-65
2023/05/24 08:49:22;;;;;;;21.02;6.10;;;;;15.70;96585.00;;;;8215152;28;20217;-66
2023/05/24 08:53:26;;;;;;;20.02;6.05;;;;;15.80;96603.00;;;;8211886;28;20313;-65
2023/05/24 08:57:33;;;;;;;17.08;6.43;;;;;15.80;96607.00;;;;8210357;28;20204;-65
2023/05/24 09:01:40;;;;;;;14.07;6.15;;;;;15.70;96611.00;;;;8208716;28;20243;-65
2023/05/24 09:05:45;;;;;;;17.88;5.95;;;;;15.90;96610.00;;;;8208735;28;20251;-68
2023/05/24 09:09:55;;;;;;;34.72;6.85;;;;;16.10;96609.00;;;;8208163;28;20204;-65
2023/05/24 09:13:58;;;;;;;15.93;6.25;;;;;16.00;96609.00;;;;8202790;28;20214;-65
2023/05/24 09:18:01;;;;;;;16.23;6.00;;;;;16.00;96612.00;;;;8204122;28;20274;-66
2023/05/24 09:22:09;;;;;;;23.63;6.68;;;;;15.90;96625.00;;;;8210027;28;20228;-65
2023/05/24 09:26:13;;;;;;;16.10;5.28;;;;;15.80;96615.00;;;;8195835;28;20275;-65
2023/05/24 09:30:16;;;;;;;16.60;5.00;;;;;15.90;96617.00;;;;8206668;28;20296;-65
2023/05/24 09:34:24;;;;;;;22.65;6.63;;;;;16.00;96615.00;;;;8211787;28;20203;-65
2023/05/24 09:38:29;;;;;;;19.33;6.28;;;;;16.20;96606.00;;;;8213941;28;20204;-68
2023/05/24 09:42:33;;;;;;;18.10;5.85;;;;;16.40;96613.00;;;;8208801;28;20246;-64
2023/05/24 09:46:37;;;;;;;16.67;5.75;;;;;16.50;96599.00;;;;8212616;28;20665;-64
2023/05/24 09:50:59;;;;;;;12.73;5.65;;;;;16.60;96603.00;;;;8212942;28;20216;-64
2023/05/24 09:55:13;;;;;;;12.48;4.88;;;;;16.70;96601.00;;;;8211759;28;20265;-65
2023/05/24 09:59:17;;;;;;;8.80;5.13;;;;;17.00;96601.00;;;;8206859;28;20239;-66
2023/05/24 10:03:25;;;;;;;15.60;5.65;;;;;17.20;96619.00;;;;8208433;28;20271;-65
2023/05/24 10:07:30;;;;;;;12.73;4.78;;;;;17.40;96605.00;;;;8203769;28;20212;-63
2023/05/24 10:11:36;;;;;;;16.27;5.13;;;;;17.70;96590.00;;;;8216103;28;20784;-64
2023/05/24 10:15:41;;;;;;;19.63;5.78;;;;;17.90;96600.00;;;;8198901;28;20547;-62
2023/05/24 10:19:45;;;;;;;15.52;4.88;;;;;18.30;96617.00;;;;8201578;28;20240;-64
2023/05/24 10:23:52;;;;;;;14.57;5.22;;;;;18.30;96618.00;;;;8201369;28;20205;-68
2023/05/24 10:27:58;;;;;;;13.73;5.00;;;;;18.60;96617.00;;;;8206805;28;20298;-64
2023/05/24 10:32:05;;;;;;;7.05;4.13;;;;;18.90;96612.00;;;;8206965;28;20915;-65
2023/05/24 10:36:13;;;;;;;10.55;4.60;;;;;19.30;96607.00;;;;8211348;28;20222;-63
2023/05/24 10:40:26;;;;;;;8.70;4.22;;;;;18.90;96604.00;;;;8216195;28;20226;-65
2023/05/24 10:44:31;;;;;;;8.95;4.20;;;;;18.50;96595.00;;;;8196919;28;20234;-66
2023/05/24 10:48:39;;;;;;;11.95;4.50;;;;;18.40;96606.00;;;;8199017;28;20270;-66
2023/05/24 10:52:52;;;;;;;13.52;5.28;;;;;18.20;96601.00;;;;8218877;28;20207;-66
2023/05/24 10:57:03;;;;;;;13.05;5.05;;;;;18.10;96608.00;;;;8216598;28;20233;-66
2023/05/24 11:01:13;;;;;;;9.27;4.30;;;;;18.00;96617.00;;;;8221154;28;20771;-66
2023/05/24 11:05:21;;;;;;;12.48;4.63;;;;;18.30;96621.00;;;;8196657;28;20203;-67
2023/05/24 11:09:27;;;;;;;15.38;4.57;;;;;18.20;96626.00;;;;8220037;28;20290;-69
2023/05/24 11:13:33;;;;;;;10.70;3.67;;;;;18.10;96609.00;;;;8206875;28;20231;-66
2023/05/24 11:18:12;;;;;;;11.88;3.90;;;;;18.10;96601.00;;;;8204817;28;20295;-66
2023/05/24 11:22:19;;;;;;;11.52;3.72;;;;;18.30;96605.00;;;;8191198;28;20228;-68
2023/05/24 11:26:24;;;;;;;10.07;4.13;;;;;18.20;96612.00;;;;8209361;28;20787;-65
2023/05/24 11:30:32;;;;;;;9.38;3.97;;;;;18.10;96615.00;;;;8216528;28;20306;-66
2023/05/24 11:34:36;;;;;;;8.88;3.90;;;;;17.90;96609.00;;;;8179549;28;20243;-64
2023/05/24 11:38:43;;;;;;;7.80;3.42;;;;;17.70;96614.00;;;;8221989;28;20294;-66
2023/05/24 11:42:47;;;;;;;9.50;3.65;;;;;17.70;96622.00;;;;8221614;28;20330;-65
2023/05/24 11:46:57;;;;;;;12.63;3.88;;;;;18.00;96613.00;;;;8221010;28;20214;-64
2023/05/24 11:51:03;;;;;;;13.30;3.50;;;;;18.00;96606.00;;;;8220253;28;20295;-65
2023/05/24 11:55:12;;;;;;;8.45;3.65;;;;;18.10;96614.00;;;;8220862;28;20254;-67
2023/05/24 11:59:23;;;;;;;10.80;3.85;;;;;18.00;96604.00;;;;8216248;28;20199;-64
2023/05/24 12:03:26;;;;;;;7.32;3.92;;;;;17.70;96597.00;;;;8213894;28;20326;-65
2023/05/24 12:07:33;;;;;;;11.27;3.92;;;;;17.80;96605.00;;;;8216455;28;20423;-64
2023/05/24 12:11:40;;;;;;;13.02;3.95;;;;;18.10;96606.00;;;;8212926;28;20295;-65
2023/05/24 12:15:44;;;;;;;9.63;3.85;;;;;18.30;96593.00;;;;8213242;28;20727;-63
2023/05/24 12:19:54;;;;;;;6.93;3.88;;;;;18.20;96590.00;;;;8207584;28;20204;-65
2023/05/24 12:23:58;;;;;;;9.45;3.65;;;;;18.20;96591.00;;;;8205890;28;20208;-65
2023/05/24 12:28:04;;;;;;;13.90;4.10;;;;;18.40;96602.00;;;;8210486;28;20223;-64
2023/05/24 12:32:11;;;;;;;7.45;4.00;;;;;18.90;96609.00;;;;8203981;28;20219;-67
2023/05/24 12:36:17;;;;;;;10.90;3.80;;;;;19.00;96610.00;;;;8217143;28;20915;-65
2023/05/24 12:40:22;;;;;;;13.90;4.00;;;;;18.80;96605.00;;;;8214694;28;20246;-65
2023/05/24 12:44:29;;;;;;;6.57;3.47;;;;;18.80;96602.00;;;;8218604;28;20231;-66
2023/05/24 12:48:32;;;;;;;12.55;3.95;;;;;18.80;96591.00;;;;8217340;28;20208;-64
2023/05/24 12:52:35;;;;;;;6.00;3.25;;;;;18.80;96597.00;;;;8220485;28;20657;-65
2023/05/24 12:56:40;;;;;;;14.68;3.92;;;;;18.90;96591.00;;;;8220169;28;20280;-63
2023/05/24 13:00:48;;;;;;;10.73;3.47;;;;;18.80;96588.00;;;;8225463;28;20318;-63
2023/05/24 13:04:52;;;;;;;12.35;3.60;;;;;19.00;96582.00;;;;8224589;28;20228;-65
2023/05/24 13:08:55;;;;;;;11.38;3.72;;;;;19.60;96598.00;;;;8222948;28;20200;-64
2023/05/24 13:12:59;;;;;;;10.68;3.72;;;;;19.80;96595.00;;;;8212418;28;20267;-64
2023/05/24 13:17:05;;;;;;;13.55;3.90;;;;;19.50;96579.00;;;;8210070;28;20207;-65
2023/05/24 13:21:10;;;;;;;8.70;3.97;;;;;19.40;96588.00;;;;8204394;28;20237;-65
2023/05/24 13:25:14;;;;;;;12.70;3.58;;;;;19.20;96581.00;;;;8210791;28;20290;-63
2023/05/24 13:29:20;;;;;;;13.38;3.75;;;;;19.10;96583.00;;;;8202968;28;20282;-65
2023/05/24 13:33:43;;;;;;;14.07;4.10;;;;;19.30;96568.00;;;;8196673;28;20281;-65
2023/05/24 13:37:48;;;;;;;10.00;3.50;;;;;19.30;96571.00;;;;8206414;28;20204;-67
2023/05/24 13:41:53;;;;;;;12.25;3.38;;;;;19.60;96568.00;;;;8206544;28;20582;-65
2023/05/24 13:45:58;;;;;;;10.80;3.92;;;;;19.50;96562.00;;;;8206439;28;20262;-64
2023/05/24 13:50:07;;;;;;;7.88;3.60;;;;;19.50;96565.00;;;;8193551;28;20208;-63
2023/05/24 13:54:12;;;;;;;13.40;4.40;;;;;19.60;96572.00;;;;8207347;28;20239;-66
2023/05/24 13:58:15;;;;;;;11.05;4.10;;;;;19.70;96573.00;;;;8181547;28;20283;-64
2023/05/24 14:02:22;;;;;;;8.23;3.63;;;;;19.80;96584.00;;;;8197342;28;20291;-64
2023/05/24 14:06:27;;;;;;;10.00;3.72;;;;;19.70;96583.00;;;;8194964;28;20263;-65
2023/05/24 14:10:30;;;;;;;14.77;3.58;;;;;19.60;96572.00;;;;8177539;28;20214;-66
2023/05/24 14:14:37;;;;;;;8.35;3.38;;;;;19.40;96573.00;;;;8199608;28;20204;-63
2023/05/24 14:18:47;;;;;;;11.57;4.43;;;;;19.20;96581.00;;;;8196944;28;20212;-65
2023/05/24 14:22:52;;;;;;;10.00;3.60;;;;;19.20;96575.00;;;;8206835;28;20228;-65
2023/05/24 14:27:05;;;;;;;11.32;3.80;;;;;19.20;96579.00;;;;8196409;28;20773;-64
2023/05/24 14:31:08;;;;;;;6.82;3.67;;;;;19.00;96579.00;;;;8200456;28;20215;-66
2023/05/24 14:35:12;;;;;;;9.18;3.70;;;;;18.90;96586.00;;;;8199300;28;20714;-64
2023/05/24 14:39:19;;;;;;;9.43;3.25;;;;;18.80;96585.00;;;;8192432;28;20298;-64
2023/05/24 14:43:29;;;;;;;12.60;3.55;;;;;18.80;96572.00;;;;8190972;28;20278;-65
2023/05/24 14:47:33;;;;;;;11.38;3.50;;;;;18.80;96578.00;;;;8200739;28;20649;-63
2023/05/24 14:51:36;;;;;;;7.93;2.97;;;;;18.50;96582.00;;;;8211224;28;20574;-65
2023/05/24 14:55:41;;;;;;;12.07;3.38;;;;;18.30;96581.00;;;;8202554;28;20200;-65
2023/05/24 14:59:48;;;;;;;13.10;3.17;;;;;18.10;96588.00;;;;8202887;28;20633;-65
2023/05/24 15:03:54;;;;;;;11.57;3.75;;;;;18.20;96591.00;;;;8198001;28;20236;-64
2023/05/24 15:07:57;;;;;;;12.82;3.70;;;;;18.20;96584.00;;;;8206889;28;20846;-64
2023/05/24 15:12:03;;;;;;;13.25;3.42;;;;;18.20;96579.00;;;;8193820;28;20294;-62
2023/05/24 15:16:09;;;;;;;11.48;3.90;;;;;18.10;96583.00;;;;8199728;28;20287;-63
2023/05/24 15:20:17;;;;;;;13.73;3.80;;;;;18.00;96568.00;;;;8176502;28;20901;-62
2023/05/24 15:24:21;;;;;;;8.07;3.30;;;;;18.10;96579.00;;;;8199442;28;20232;-66
2023/05/24 15:28:29;;;;;;;12.07;3.72;;;;;18.20;96574.00;;;;8196555;28;20695;-63
2023/05/24 15:32:32;;;;;;;9.25;3.33;;;;;18.40;96580.00;;;;8197690;28;20299;-65
2023/05/24 15:36:39;;;;;;;9.50;3.58;;;;;18.60;96569.00;;;;8197880;28;20222;-66
2023/05/24 15:40:43;;;;;;;7.88;3.42;;;;;18.90;96568.00;;;;8197984;28;20212;-63
2023/05/24 15:44:48;;;;;;;12.45;3.30;;;;;18.90;96571.00;;;;8197985;28;20231;-64
2023/05/24 15:48:52;;;;;;;13.50;3.97;;;;;18.80;96583.00;;;;8192678;28;20200;-67
2023/05/24 15:52:56;;;;;;;14.95;4.60;;;;;18.80;96582.00;;;;8191648;28;20206;-65
2023/05/24 15:57:00;;;;;;;10.77;4.05;;;;;18.80;96573.00;;;;8197306;28;20208;-65
2023/05/24 16:01:05;;;;;;;7.90;3.60;;;;;19.00;96564.00;;;;8190529;28;20208;-63
2023/05/24 16:05:09;;;;;;;8.80;3.72;;;;;19.40;96561.00;;;;8201332;28;20246;-63
2023/05/24 16:09:15;;;;;;;9.32;3.83;;;;;19.70;96579.00;;;;8190277;28;20785;-63
2023/05/24 16:13:18;;;;;;;14.52;3.95;;;;;19.70;96576.00;;;;8211294;28;20218;-66
2023/05/24 16:17:26;;;;;;;10.07;3.33;;;;;19.90;96575.00;;;;8190740;28;20259;-65
2023/05/24 16:21:29;;;;;;;4.78;2.92;;;;;20.10;96573.00;;;;8197920;28;20565;-65
2023/05/24 16:25:33;;;;;;;11.63;3.75;;;;;20.20;96580.00;;;;8204447;28;20291;-63
2023/05/24 16:29:38;;;;;;;9.80;3.35;;;;;20.00;96579.00;;;;8177598;28;20216;-66
2023/05/24 16:33:44;;;;;;;11.38;3.58;;;;;20.00;96581.00;;;;8202908;28;20212;-64
2023/05/24 16:37:48;;;;;;;9.02;3.22;;;;;20.20;96585.00;;;;8203403;28;20208;-65
2023/05/24 16:41:51;;;;;;;8.63;3.53;;;;;20.40;96583.00;;;;8198510;28;20581;-63
2023/05/24 16:45:59;;;;;;;11.07;3.85;;;;;20.30;96574.00;;;;8208149;28;20291;-65
2023/05/24 16:50:08;;;;;;;10.73;3.45;;;;;20.40;96578.00;;;;8210456;28;20206;-63
2023/05/24 16:54:21;;;;;;;13.95;3.63;;;;;20.40;96579.00;;;;8208423;28;20211;-67
2023/05/24 16:58:26;;;;;;;9.10;3.40;;;;;20.50;96576.00;;;;8208795;28;20207;-65
2023/05/24 17:02:31;;;;;;;11.98;3.85;;;;;20.50;96578.00;;;;8203615;28;20724;-65
2023/05/24 17:06:38;;;;;;;7.40;3.97;;;;;20.40;96577.00;;;;8196461;28;20267;-66
2023/05/24 17:10:42;;;;;;;11.80;3.70;;;;;20.30;96576.00;;;;8182938;28;20748;-63
2023/05/24 17:14:47;;;;;;;9.85;4.13;;;;;20.40;96575.00;;;;8198840;28;20231;-64
2023/05/24 17:18:50;;;;;;;10.60;3.45;;;;;20.30;96574.00;;;;8213351;28;20203;-66
2023/05/24 17:22:56;;;;;;;14.13;3.80;;;;;20.30;96583.00;;;;8190372;28;20235;-64
2023/05/24 17:27:04;;;;;;;16.05;4.05;;;;;20.10;96593.00;;;;8203438;28;20220;-66
2023/05/24 17:31:08;;;;;;;11.52;3.65;;;;;20.00;96592.00;;;;8193573;28;20289;-66
2023/05/24 17:35:13;;;;;;;10.25;3.92;;;;;20.00;96598.00;;;;8211640;28;20688;-65
2023/05/24 17:39:18;;;;;;;9.75;3.38;;;;;19.90;96592.00;;;;8200725;28;20291;-67
2023/05/24 17:43:22;;;;;;;12.05;3.60;;;;;19.80;96596.00;;;;8196298;28;20810;-66
2023/05/24 17:47:25;;;;;;;9.65;3.72;;;;;19.20;96600.00;;;;8205266;28;20208;-66
2023/05/24 17:51:28;;;;;;;8.52;3.03;;;;;18.80;96600.00;;;;8192332;28;20693;-66
2023/05/24 17:55:35;;;;;;;15.38;4.03;;;;;18.20;96599.00;;;;8196908;28;20218;-63
2023/05/24 17:59:38;;;;;;;10.57;4.10;;;;;17.70;96609.00;;;;8208145;28;20215;-65
2023/05/24 18:03:41;;;;;;;13.75;3.78;;;;;17.20;96606.00;;;;8192784;28;20232;-67
2023/05/24 18:07:50;;;;;;;12.63;3.30;;;;;16.70;96605.00;;;;8186394;28;20211;-64
2023/05/24 18:11:55;;;;;;;12.85;3.63;;;;;16.40;96606.00;;;;8202508;28;20307;-64
2023/05/24 18:15:58;;;;;;;10.90;3.30;;;;;16.10;96615.00;;;;8202103;28;20883;-65
2023/05/24 18:20:02;;;;;;;18.50;3.63;;;;;16.00;96613.00;;;;8199332;28;20550;-64
2023/05/24 18:24:07;;;;;;;13.10;3.75;;;;;15.70;96607.00;;;;8182375;28;20238;-65
2023/05/24 18:28:14;;;;;;;13.65;3.95;;;;;15.60;96615.00;;;;8199536;28;20210;-66
2023/05/24 18:32:18;;;;;;;11.63;3.35;;;;;15.50;96609.00;;;;8193501;28;20641;-64
2023/05/24 18:36:21;;;;;;;7.57;3.45;;;;;15.40;96613.00;;;;8191731;28;20204;-68
2023/05/24 18:40:27;;;;;;;12.70;3.75;;;;;15.20;96612.00;;;;8203949;28;20287;-65
2023/05/24 18:44:35;;;;;;;12.52;4.03;;;;;15.10;96612.00;;;;8193842;28;20359;-65
2023/05/24 18:48:39;;;;;;;10.57;3.30;;;;;14.90;96622.00;;;;8200628;28;20204;-65
2023/05/24 18:52:42;;;;;;;10.05;3.50;;;;;14.80;96622.00;;;;8204048;28;20221;-63
2023/05/24 18:56:46;;;;;;;10.32;3.30;;;;;14.70;96622.00;;;;8190721;28;20334;-64
2023/05/24 19:00:55;;;;;;;14.75;4.43;;;;;14.60;96626.00;;;;8202595;28;20295;-68
2023/05/24 19:04:58;;;;;;;13.02;3.90;;;;;14.40;96635.00;;;;8192477;28;20240;-65
2023/05/24 19:09:01;;;;;;;9.73;3.80;;;;;14.30;96645.00;;;;8195902;28;20893;-64
2023/05/24 19:13:06;;;;;;;10.90;4.00;;;;;14.20;96644.00;;;;8206722;28;20310;-63
2023/05/24 19:17:10;;;;;;;8.27;3.40;;;;;14.10;96658.00;;;;8192602;28;20640;-66
2023/05/24 19:21:15;;;;;;;15.98;4.65;;;;;14.00;96655.00;;;;8202723;28;20203;-65
2023/05/24 19:25:19;;;;;;;10.95;4.10;;;;;13.90;96655.00;;;;8180659;28;20262;-63
2023/05/24 19:29:23;;;;;;;10.00;3.80;;;;;13.80;96661.00;;;;8197318;28;20199;-63
2023/05/24 19:33:29;;;;;;;13.13;4.25;;;;;13.80;96663.00;;;;8194123;28;20215;-68
2023/05/24 19:37:32;;;;;;;11.82;3.40;;;;;13.60;96664.00;;;;8214501;28;20219;-63
2023/05/24 19:41:36;;;;;;;16.77;3.85;;;;;13.50;96655.00;;;;8218449;28;20775;-64
2023/05/24 19:45:40;;;;;;;12.88;3.60;;;;;13.50;96661.00;;;;8208303;28;20330;-65
2023/05/24 19:49:45;;;;;;;12.25;3.67;;;;;13.40;96662.00;;;;8214299;28;20214;-66
2023/05/24 19:53:54;;;;;;;12.07;3.45;;;;;13.30;96668.00;;;;8208569;28;20653;-66
2023/05/24 19:57:57;;;;;;;9.38;3.67;;;;;13.20;96659.00;;;;8188178;28;20776;-63
2023/05/24 20:02:01;;;;;;;10.25;3.95;;;;;13.10;96663.00;;;;8209981;28;20245;-65
2023/05/24 20:06:06;;;;;;;7.65;3.40;;;;;13.00;96666.00;;;;8210662;28;20294;-65
2023/05/24 20:10:10;;;;;;;10.82;3.42;;;;;12.90;96672.00;;;;8209606;28;20211;-64
2023/05/24 20:14:13;;;;;;;10.68;3.83;;;;;12.80;96685.00;;;;8221451;28;20289;-64
2023/05/24 20:18:16;;;;;;;10.02;3.42;;;;;12.70;96671.00;;;;8211974;28;20212;-67